createdAt,value
2022-12-22T00:00:11.436Z,5.29
2022-12-22T00:04:20.246Z,5.30
2022-12-22T00:08:05.998Z,5.31
2022-12-22T00:11:51.331Z,5.30
2022-12-22T00:15:37.303Z,5.34
2022-12-22T00:19:31.047Z,5.36
2022-12-22T00:23:16.521Z,5.35
2022-12-22T00:27:02.222Z,5.36
2022-12-22T00:30:48.356Z,5.36
2022-12-22T00:34:39.080Z,5.33
2022-12-22T00:38:33.018Z,5.33
2022-12-22T00:42:19.656Z,5.28
2022-12-22T00:46:03.972Z,5.28
2022-12-22T00:49:49.563Z,5.25
2022-12-22T00:53:35.569Z,5.21
2022-12-22T00:57:20.850Z,5.16
2022-12-22T01:01:05.681Z,5.09
2022-12-22T01:04:50.350Z,5.05
2022-12-22T01:08:34.762Z,5.02
2022-12-22T01:12:19.269Z,5.03
2022-12-22T01:16:03.500Z,5.02
2022-12-22T01:19:47.600Z,5.05
2022-12-22T01:23:32.451Z,5.09
2022-12-22T01:27:17.147Z,5.14
2022-12-22T01:31:02.568Z,5.21
2022-12-22T01:34:46.836Z,5.27
2022-12-22T01:38:31.440Z,5.33
2022-12-22T01:42:15.837Z,5.36
2022-12-22T01:46:00.559Z,5.38
2022-12-22T01:49:49.811Z,5.42
2022-12-22T01:53:39.891Z,5.45
2022-12-22T01:57:25.016Z,5.47
2022-12-22T02:01:09.328Z,5.49
2022-12-22T02:05:03.219Z,5.50
2022-12-22T02:08:52.439Z,5.53
2022-12-22T02:12:44.443Z,5.54
2022-12-22T02:16:34.738Z,5.52
2022-12-22T02:20:48.952Z,5.51
2022-12-22T02:24:48.445Z,5.49
2022-12-22T02:28:34.299Z,5.43
2022-12-22T02:32:18.743Z,5.41
2022-12-22T02:36:18.648Z,5.37
2022-12-22T02:40:11.681Z,5.33
2022-12-22T02:44:12.277Z,5.29
2022-12-22T02:48:02.945Z,5.25
2022-12-22T02:51:50.563Z,5.23
2022-12-22T02:55:36.452Z,5.25
2022-12-22T02:59:21.107Z,5.28
2022-12-22T03:03:06.355Z,5.32
2022-12-22T03:06:50.999Z,5.34
2022-12-22T03:10:35.765Z,5.39
2022-12-22T03:14:20.131Z,5.45
2022-12-22T03:18:04.847Z,5.48
2022-12-22T03:21:49.325Z,5.50
2022-12-22T03:25:34.132Z,5.54
2022-12-22T03:29:00.739Z,5.55
2022-12-22T03:32:27.214Z,5.55
2022-12-22T03:35:54.299Z,5.56
2022-12-22T03:39:20.584Z,5.59
2022-12-22T03:43:05.283Z,5.62
2022-12-22T03:46:32.384Z,5.64
2022-12-22T03:49:59.523Z,5.64
2022-12-22T03:53:26.455Z,5.63
2022-12-22T03:56:54.180Z,5.66
2022-12-22T04:00:21.933Z,5.68
2022-12-22T04:03:49.601Z,5.67
2022-12-22T04:07:16.789Z,5.70
2022-12-22T04:11:01.268Z,5.74
2022-12-22T04:14:33.386Z,5.80
2022-12-22T04:18:01.917Z,5.81
2022-12-22T04:21:29.038Z,5.80
2022-12-22T04:24:56.075Z,5.79
2022-12-22T04:28:23.068Z,5.73
2022-12-22T04:31:50.126Z,5.66
2022-12-22T04:35:16.830Z,5.60
2022-12-22T04:38:43.325Z,5.54
2022-12-22T04:42:10.127Z,5.47
2022-12-22T04:45:37.124Z,5.45
2022-12-22T04:49:03.926Z,5.45
2022-12-22T04:52:31.168Z,5.49
2022-12-22T04:56:00.948Z,5.50
2022-12-22T04:59:27.963Z,5.50
2022-12-22T05:02:55.454Z,5.52
2022-12-22T05:06:22.769Z,5.55
2022-12-22T05:09:49.824Z,5.58
2022-12-22T05:13:17.015Z,5.61
2022-12-22T05:16:44.076Z,5.62
2022-12-22T05:20:12.665Z,5.63
2022-12-22T05:23:39.542Z,5.66
2022-12-22T05:27:06.111Z,5.68
2022-12-22T05:30:33.242Z,5.72
2022-12-22T05:33:59.645Z,5.76
2022-12-22T05:37:26.360Z,5.75
2022-12-22T05:40:56.808Z,5.76
2022-12-22T05:44:26.628Z,5.76
2022-12-22T05:47:54.285Z,5.78
2022-12-22T05:51:22.057Z,5.79
2022-12-22T05:54:49.071Z,5.79
2022-12-22T05:58:16.845Z,5.79
2022-12-22T06:01:43.481Z,5.75
2022-12-22T06:05:12.218Z,5.70
2022-12-22T06:08:39.546Z,5.64
2022-12-22T06:12:06.965Z,5.60
2022-12-22T06:15:33.565Z,5.57
2022-12-22T06:19:00.706Z,5.52
2022-12-22T06:22:27.367Z,5.49
2022-12-22T06:26:02.444Z,5.47
2022-12-22T06:29:28.997Z,5.46
2022-12-22T06:32:55.701Z,5.47
2022-12-22T06:36:22.513Z,5.50
2022-12-22T06:39:49.235Z,5.54
2022-12-22T06:43:17.176Z,5.58
2022-12-22T06:46:44.170Z,5.59
2022-12-22T06:50:12.492Z,5.61
2022-12-22T06:53:39.332Z,5.63
2022-12-22T06:57:06.375Z,5.66
2022-12-22T07:00:33.842Z,5.70
2022-12-22T07:04:00.772Z,5.73
2022-12-22T07:07:27.719Z,5.73
2022-12-22T07:11:00.908Z,5.75
2022-12-22T07:14:27.435Z,5.76
2022-12-22T07:17:56.264Z,5.75
2022-12-22T07:21:22.969Z,5.73
2022-12-22T07:24:50.735Z,5.68
2022-12-22T07:28:20.997Z,5.62
2022-12-22T07:31:48.153Z,5.57
2022-12-22T07:35:15.423Z,5.51
2022-12-22T07:38:44.180Z,5.45
2022-12-22T07:42:31.575Z,5.42
2022-12-22T07:45:58.213Z,5.42
2022-12-22T07:49:42.518Z,5.40
2022-12-22T07:53:09.425Z,5.43
2022-12-22T07:56:38.675Z,5.45
2022-12-22T08:00:06.241Z,5.48
2022-12-22T08:03:38.705Z,5.51
2022-12-22T08:07:05.685Z,5.57
2022-12-22T08:10:33.245Z,5.60
2022-12-22T08:14:01.900Z,5.60
2022-12-22T08:17:29.895Z,5.70
2022-12-22T08:20:56.648Z,5.78
2022-12-22T08:24:25.428Z,5.84
2022-12-22T08:27:55.827Z,5.85
2022-12-22T08:31:23.849Z,5.87
2022-12-22T08:34:52.153Z,5.90
2022-12-22T08:38:19.466Z,5.87
2022-12-22T08:41:52.172Z,5.86
2022-12-22T08:45:19.027Z,5.81
2022-12-22T08:48:46.271Z,5.75
2022-12-22T08:52:18.397Z,5.70
2022-12-22T08:55:54.569Z,5.65
2022-12-22T08:59:24.616Z,5.62
2022-12-22T09:02:52.453Z,5.58
2022-12-22T09:06:21.508Z,5.55
2022-12-22T09:09:54.917Z,5.57
2022-12-22T09:13:21.424Z,5.61
2022-12-22T09:16:48.468Z,5.67
2022-12-22T09:20:16.750Z,5.72
2022-12-22T09:23:43.646Z,5.78
2022-12-22T09:27:10.669Z,5.84
2022-12-22T09:30:37.446Z,5.88
2022-12-22T09:34:04.020Z,5.92
2022-12-22T09:37:30.644Z,5.97
2022-12-22T09:40:57.453Z,6.04
2022-12-22T09:44:28.023Z,6.10
2022-12-22T09:47:56.622Z,6.17
2022-12-22T09:51:27.437Z,6.23
2022-12-22T09:54:54.788Z,6.24
2022-12-22T09:58:26.961Z,6.25
2022-12-22T10:02:05.326Z,6.31
2022-12-22T10:05:41.363Z,6.33
2022-12-22T10:09:47.741Z,6.32
2022-12-22T10:13:07.772Z,6.32
2022-12-22T10:16:34.532Z,6.28
2022-12-22T10:20:25.673Z,6.24
2022-12-22T10:23:52.616Z,6.22
2022-12-22T10:27:25.807Z,6.22
2022-12-22T10:31:13.985Z,6.25
2022-12-22T10:34:45.793Z,6.27
2022-12-22T10:38:23.116Z,6.32
2022-12-22T10:41:56.956Z,6.39
2022-12-22T10:45:28.477Z,6.45
2022-12-22T10:49:10.156Z,6.52
2022-12-22T10:52:37.937Z,6.61
2022-12-22T10:56:18.609Z,6.69
2022-12-22T10:59:52.456Z,6.76
2022-12-22T11:03:32.807Z,6.81
2022-12-22T11:07:02.199Z,6.85
2022-12-22T11:10:40.008Z,6.86
2022-12-22T11:14:15.908Z,6.84
2022-12-22T11:17:54.658Z,6.82
2022-12-22T11:21:29.652Z,6.79
2022-12-22T11:25:17.019Z,6.75
2022-12-22T11:28:56.305Z,6.67
2022-12-22T11:32:43.435Z,6.66
2022-12-22T11:36:17.158Z,6.64
2022-12-22T11:39:53.014Z,6.63
2022-12-22T11:43:35.339Z,6.63
2022-12-22T11:47:12.930Z,6.62
2022-12-22T11:50:58.199Z,6.60
2022-12-22T11:54:59.304Z,6.58
2022-12-22T11:58:43.785Z,6.59
2022-12-22T12:02:44.192Z,6.58
2022-12-22T12:07:00.171Z,6.56
2022-12-22T12:10:30.542Z,6.59
2022-12-22T12:14:12.636Z,6.62
2022-12-22T12:17:52.487Z,6.63
2022-12-22T12:21:29.834Z,6.63
2022-12-22T12:25:13.496Z,6.58
2022-12-22T12:28:53.882Z,6.51
2022-12-22T12:32:27.406Z,6.39
2022-12-22T12:36:03.250Z,6.32
2022-12-22T12:39:40.895Z,6.26
2022-12-22T12:43:15.951Z,6.24
2022-12-22T12:47:10.171Z,6.23
2022-12-22T12:50:38.873Z,6.23
2022-12-22T12:54:37.502Z,6.28
2022-12-22T12:58:07.921Z,6.30
2022-12-22T13:02:02.169Z,6.33
2022-12-22T13:05:36.959Z,6.37
2022-12-22T13:09:49.336Z,6.42
2022-12-22T13:13:11.452Z,6.48
2022-12-22T13:16:40.754Z,6.50
2022-12-22T13:20:15.795Z,6.53
2022-12-22T13:24:22.340Z,6.57
2022-12-22T13:27:34.693Z,6.59
2022-12-22T13:31:05.425Z,6.61
2022-12-22T13:35:20.633Z,6.60
2022-12-22T13:38:36.290Z,6.63
2022-12-22T13:42:02.975Z,6.64
2022-12-22T13:45:36.196Z,6.68
2022-12-22T13:49:05.146Z,6.65
2022-12-22T13:52:32.295Z,6.65
2022-12-22T13:56:01.202Z,6.66
2022-12-22T13:59:35.068Z,6.62
2022-12-22T14:03:01.528Z,6.59
2022-12-22T14:06:33.846Z,6.54
2022-12-22T14:10:01.211Z,6.51
2022-12-22T14:13:34.858Z,6.48
2022-12-22T14:17:07.028Z,6.49
2022-12-22T14:20:40.485Z,6.51
2022-12-22T14:24:08.367Z,6.52
2022-12-22T14:27:43.914Z,6.52
2022-12-22T14:31:13.938Z,6.55
2022-12-22T14:34:41.173Z,6.61
2022-12-22T14:38:27.628Z,6.67
2022-12-22T14:41:57.236Z,6.73
2022-12-22T14:45:26.856Z,6.78
2022-12-22T14:48:53.588Z,6.83
2022-12-22T14:52:33.800Z,6.87
2022-12-22T14:56:00.848Z,6.90
2022-12-22T14:59:31.508Z,6.93
2022-12-22T15:03:02.201Z,6.95
2022-12-22T15:06:40.826Z,6.95
2022-12-22T15:10:16.374Z,6.99
2022-12-22T15:13:46.588Z,7.02
2022-12-22T15:17:26.241Z,7.05
2022-12-22T15:20:58.100Z,7.05
2022-12-22T15:24:25.596Z,7.03
2022-12-22T15:27:53.777Z,7.02
2022-12-22T15:31:25.375Z,6.98
2022-12-22T15:34:55.153Z,6.96
2022-12-22T15:38:23.690Z,6.91
2022-12-22T15:41:51.920Z,6.87
2022-12-22T15:45:24.074Z,6.85
2022-12-22T15:48:54.127Z,6.85
2022-12-22T15:52:21.052Z,6.87
2022-12-22T15:55:51.817Z,6.88
2022-12-22T15:59:24.159Z,6.90
2022-12-22T16:02:51.181Z,6.95
2022-12-22T16:06:20.833Z,7.01
2022-12-22T16:09:50.379Z,7.07
2022-12-22T16:13:26.856Z,7.12
2022-12-22T16:16:53.866Z,7.13
2022-12-22T16:20:21.792Z,7.14
2022-12-22T16:23:52.676Z,7.16
2022-12-22T16:27:19.887Z,7.17
2022-12-22T16:30:48.793Z,7.21
2022-12-22T16:34:16.166Z,7.22
2022-12-22T16:37:45.267Z,7.21
2022-12-22T16:41:21.986Z,7.19
2022-12-22T16:44:51.798Z,7.18
2022-12-22T16:48:21.671Z,7.19
2022-12-22T16:51:52.561Z,7.20
2022-12-22T16:55:21.586Z,7.19
2022-12-22T16:58:49.443Z,7.18
2022-12-22T17:02:29.781Z,7.18
2022-12-22T17:06:01.979Z,7.20
2022-12-22T17:09:32.755Z,7.21
2022-12-22T17:13:02.687Z,7.19
2022-12-22T17:16:30.093Z,7.21
2022-12-22T17:19:59.166Z,7.21
2022-12-22T17:23:36.869Z,7.26
2022-12-22T17:27:08.795Z,7.27
2022-12-22T17:30:42.545Z,7.28
2022-12-22T17:34:17.666Z,7.28
2022-12-22T17:37:45.648Z,7.29
2022-12-22T17:41:15.672Z,7.33
2022-12-22T17:44:44.631Z,7.34
2022-12-22T17:48:14.268Z,7.32
2022-12-22T17:51:45.671Z,7.33
2022-12-22T17:56:01.335Z,7.37
2022-12-22T17:59:14.090Z,7.33
2022-12-22T18:02:41.039Z,7.34
2022-12-22T18:06:12.894Z,7.34
2022-12-22T18:09:44.384Z,7.36
2022-12-22T18:13:18.991Z,7.36
2022-12-22T18:16:46.792Z,7.32
2022-12-22T18:20:18.168Z,7.31
2022-12-22T18:23:49.842Z,7.29
2022-12-22T18:27:18.327Z,7.28
2022-12-22T18:30:46.323Z,7.28
2022-12-22T18:34:14.607Z,7.28
2022-12-22T18:37:42.305Z,7.29
2022-12-22T18:41:18.752Z,7.32
2022-12-22T18:44:46.255Z,7.31
2022-12-22T18:48:15.298Z,7.28
2022-12-22T18:51:44.424Z,7.31
2022-12-22T18:55:19.691Z,7.32
2022-12-22T18:58:47.559Z,7.32
2022-12-22T19:02:25.819Z,7.32
2022-12-22T19:05:54.551Z,7.31
2022-12-22T19:09:23.689Z,7.28
2022-12-22T19:12:58.703Z,7.27
2022-12-22T19:16:29.157Z,7.29
2022-12-22T19:19:57.783Z,7.29
2022-12-22T19:23:26.723Z,7.25
2022-12-22T19:26:53.920Z,7.25
2022-12-22T19:30:23.815Z,7.24
2022-12-22T19:33:51.862Z,7.26
2022-12-22T19:37:18.740Z,7.26
2022-12-22T19:40:45.913Z,7.27
2022-12-22T19:44:25.962Z,7.28
2022-12-22T19:47:55.062Z,7.29
2022-12-22T19:51:23.746Z,7.29
2022-12-22T19:54:58.092Z,7.32
2022-12-22T19:58:30.430Z,7.37
2022-12-22T20:02:01.350Z,7.37
2022-12-22T20:05:33.057Z,7.41
2022-12-22T20:09:03.602Z,7.44
2022-12-22T20:12:36.721Z,7.46
2022-12-22T20:16:05.938Z,7.43
2022-12-22T20:19:43.712Z,7.41
2022-12-22T20:23:22.130Z,7.37
2022-12-22T20:26:54.638Z,7.35
2022-12-22T20:30:24.180Z,7.33
2022-12-22T20:33:55.193Z,7.31
2022-12-22T20:37:23.254Z,7.29
2022-12-22T20:40:52.768Z,7.27
2022-12-22T20:44:33.182Z,7.25
2022-12-22T20:48:02.297Z,7.27
2022-12-22T20:51:34.759Z,7.28
2022-12-22T20:55:02.833Z,7.31
2022-12-22T20:58:35.177Z,7.35
2022-12-22T21:02:02.054Z,7.38
2022-12-22T21:05:29.467Z,7.39
2022-12-22T21:08:58.946Z,7.42
2022-12-22T21:12:27.219Z,7.45
2022-12-22T21:15:55.190Z,7.49
2022-12-22T21:19:23.585Z,7.52
2022-12-22T21:22:53.075Z,7.56
2022-12-22T21:26:26.696Z,7.60
2022-12-22T21:29:52.358Z,7.63
2022-12-22T21:33:20.790Z,7.61
2022-12-22T21:36:55.782Z,7.59
2022-12-22T21:40:26.556Z,7.58
2022-12-22T21:43:55.293Z,7.54
2022-12-22T21:47:22.744Z,7.50
2022-12-22T21:50:54.246Z,7.45
2022-12-22T21:54:26.576Z,7.40
2022-12-22T21:57:56.175Z,7.33
2022-12-22T22:01:23.793Z,7.28
2022-12-22T22:04:54.998Z,7.26
2022-12-22T22:08:23.599Z,7.26
2022-12-22T22:12:09.486Z,7.26
2022-12-22T22:15:36.468Z,7.28
2022-12-22T22:19:04.214Z,7.28
2022-12-22T22:22:32.412Z,7.31
2022-12-22T22:26:02.105Z,7.32
2022-12-22T22:29:29.864Z,7.35
2022-12-22T22:32:58.197Z,7.35
2022-12-22T22:36:25.013Z,7.37
2022-12-22T22:40:12.898Z,7.38
2022-12-22T22:43:44.002Z,7.40
2022-12-22T22:47:11.580Z,7.43
2022-12-22T22:50:41.461Z,7.47
2022-12-22T22:54:18.388Z,7.49
2022-12-22T22:57:45.456Z,7.55
2022-12-22T23:01:13.559Z,7.57
2022-12-22T23:04:39.868Z,7.56
2022-12-22T23:08:07.743Z,7.51
2022-12-22T23:11:34.747Z,7.46
2022-12-22T23:15:02.393Z,7.39
2022-12-22T23:18:31.829Z,7.34
2022-12-22T23:21:59.326Z,7.30
2022-12-22T23:25:26.081Z,7.24
2022-12-22T23:28:56.425Z,7.18
2022-12-22T23:32:25.817Z,7.15
2022-12-22T23:35:54.254Z,7.12
2022-12-22T23:39:21.634Z,7.13
2022-12-22T23:42:54.817Z,7.14
2022-12-22T23:46:24.567Z,7.13
2022-12-22T23:49:51.990Z,7.14
2022-12-22T23:53:19.110Z,7.18
2022-12-22T23:56:46.467Z,7.21
